sensor_id;sensor_type;location;lat;lon;timestamp;pressure;altitude;pressure_sealevel;temperature;humidity
72096;BME280;59968;51.084;16.748;2022-12-07T00:01:45;99825.90;;;4.03;80.20
72096;BME280;59968;51.084;16.748;2022-12-07T00:04:15;99831.13;;;4.03;80.18
72096;BME280;59968;51.084;16.748;2022-12-07T00:06:46;99830.04;;;4.02;80.34
72096;BME280;59968;51.084;16.748;2022-12-07T00:09:15;99827.77;;;4.01;80.47
72096;BME280;59968;51.084;16.748;2022-12-07T00:11:48;99816.88;;;3.95;80.57
72096;BME280;59968;51.084;16.748;2022-12-07T00:14:18;99823.23;;;4.03;80.50
72096;BME280;59968;51.084;16.748;2022-12-07T00:16:50;99821.31;;;4.05;80.54
72096;BME280;59968;51.084;16.748;2022-12-07T00:19:19;99815.94;;;4.04;80.41
72096;BME280;59968;51.084;16.748;2022-12-07T00:21:48;99816.86;;;4.06;80.39
72096;BME280;59968;51.084;16.748;2022-12-07T00:24:16;99812.95;;;4.10;80.34
72096;BME280;59968;51.084;16.748;2022-12-07T00:26:44;99812.73;;;4.15;80.36
72096;BME280;59968;51.084;16.748;2022-12-07T00:29:19;99784.30;;;4.04;80.28
72096;BME280;59968;51.084;16.748;2022-12-07T00:31:48;99805.58;;;4.23;80.20
72096;BME280;59968;51.084;16.748;2022-12-07T00:34:21;99804.61;;;4.23;79.96
72096;BME280;59968;51.084;16.748;2022-12-07T00:36:50;99792.74;;;4.14;79.84
72096;BME280;59968;51.084;16.748;2022-12-07T00:39:19;99801.75;;;4.17;79.78
72096;BME280;59968;51.084;16.748;2022-12-07T00:41:47;99803.49;;;4.13;79.87
72096;BME280;59968;51.084;16.748;2022-12-07T00:44:15;99798.77;;;4.11;79.90
72096;BME280;59968;51.084;16.748;2022-12-07T00:46:44;99796.20;;;4.08;79.95
72096;BME280;59968;51.084;16.748;2022-12-07T00:49:13;99798.84;;;4.06;80.01
72096;BME280;59968;51.084;16.748;2022-12-07T00:51:42;99792.90;;;4.00;79.96
72096;BME280;59968;51.084;16.748;2022-12-07T00:54:10;99800.14;;;4.00;80.10
72096;BME280;59968;51.084;16.748;2022-12-07T00:56:39;99805.27;;;3.96;80.11
72096;BME280;59968;51.084;16.748;2022-12-07T00:59:12;99804.81;;;3.92;80.24
72096;BME280;59968;51.084;16.748;2022-12-07T01:01:41;99809.95;;;3.91;80.46
72096;BME280;59968;51.084;16.748;2022-12-07T01:04:09;99809.95;;;3.89;80.34
72096;BME280;59968;51.084;16.748;2022-12-07T01:06:38;99812.09;;;3.88;80.39
72096;BME280;59968;51.084;16.748;2022-12-07T01:09:06;99813.11;;;3.85;80.51
72096;BME280;59968;51.084;16.748;2022-12-07T01:11:35;99812.05;;;3.83;80.48
72096;BME280;59968;51.084;16.748;2022-12-07T01:14:03;99814.48;;;3.85;80.51
72096;BME280;59968;51.084;16.748;2022-12-07T01:16:32;99813.60;;;3.85;80.50
72096;BME280;59968;51.084;16.748;2022-12-07T01:19:02;99815.16;;;3.83;80.53
72096;BME280;59968;51.084;16.748;2022-12-07T01:21:34;99812.95;;;3.83;80.48
72096;BME280;59968;51.084;16.748;2022-12-07T01:24:07;99805.69;;;3.77;80.48
72096;BME280;59968;51.084;16.748;2022-12-07T01:26:37;99807.87;;;3.78;80.56
72096;BME280;59968;51.084;16.748;2022-12-07T01:29:06;99806.04;;;3.74;80.59
72096;BME280;59968;51.084;16.748;2022-12-07T01:31:34;99807.02;;;3.70;80.80
72096;BME280;59968;51.084;16.748;2022-12-07T01:34:03;99805.89;;;3.67;80.78
72096;BME280;59968;51.084;16.748;2022-12-07T01:36:34;99806.73;;;3.63;80.88
72096;BME280;59968;51.084;16.748;2022-12-07T01:39:06;99805.85;;;3.61;80.95
72096;BME280;59968;51.084;16.748;2022-12-07T01:41:38;99811.55;;;3.62;81.12
72096;BME280;59968;51.084;16.748;2022-12-07T01:44:23;99808.69;;;3.62;81.10
72096;BME280;59968;51.084;16.748;2022-12-07T01:47:03;99813.75;;;3.61;81.31
72096;BME280;59968;51.084;16.748;2022-12-07T01:49:44;99807.46;;;3.59;81.36
72096;BME280;59968;51.084;16.748;2022-12-07T01:54:49;99805.64;;;3.58;81.45
72096;BME280;59968;51.084;16.748;2022-12-07T01:57:20;99806.73;;;3.56;81.40
72096;BME280;59968;51.084;16.748;2022-12-07T01:59:51;99788.88;;;3.44;81.55
72096;BME280;59968;51.084;16.748;2022-12-07T02:02:33;99802.10;;;3.50;81.70
72096;BME280;59968;51.084;16.748;2022-12-07T02:05:04;99801.75;;;3.50;81.67
72096;BME280;59968;51.084;16.748;2022-12-07T02:07:36;99798.35;;;3.49;81.73
72096;BME280;59968;51.084;16.748;2022-12-07T02:10:27;99800.65;;;3.50;81.72
72096;BME280;59968;51.084;16.748;2022-12-07T02:16:10;99793.11;;;3.37;81.92
72096;BME280;59968;51.084;16.748;2022-12-07T02:32:20;99801.16;;;3.34;82.73
72096;BME280;59968;51.084;16.748;2022-12-07T02:35:06;99800.95;;;3.43;82.59
72096;BME280;59968;51.084;16.748;2022-12-07T02:43:15;99805.66;;;3.50;82.14
72096;BME280;59968;51.084;16.748;2022-12-07T02:45:46;99799.23;;;3.49;82.17
72096;BME280;59968;51.084;16.748;2022-12-07T02:48:17;99806.05;;;3.53;82.09
72096;BME280;59968;51.084;16.748;2022-12-07T02:50:51;99804.03;;;3.54;82.25
72096;BME280;59968;51.084;16.748;2022-12-07T02:56:01;99806.44;;;3.57;82.04
72096;BME280;59968;51.084;16.748;2022-12-07T02:59:33;99803.77;;;3.56;82.07
72096;BME280;59968;51.084;16.748;2022-12-07T03:06:54;99795.70;;;3.60;81.98
72096;BME280;59968;51.084;16.748;2022-12-07T03:09:57;99794.14;;;3.60;81.95
72096;BME280;59968;51.084;16.748;2022-12-07T03:13:11;99797.42;;;3.62;81.87
72096;BME280;59968;51.084;16.748;2022-12-07T03:18:22;99797.98;;;3.59;81.82
72096;BME280;59968;51.084;16.748;2022-12-07T03:20:53;99791.23;;;3.59;81.91
72096;BME280;59968;51.084;16.748;2022-12-07T03:23:25;99787.85;;;3.58;81.97
72096;BME280;59968;51.084;16.748;2022-12-07T03:25:58;99790.70;;;3.59;82.00
72096;BME280;59968;51.084;16.748;2022-12-07T03:28:33;99786.95;;;3.60;81.96
72096;BME280;59968;51.084;16.748;2022-12-07T03:31:23;99781.48;;;3.60;81.92
72096;BME280;59968;51.084;16.748;2022-12-07T03:34:01;99776.45;;;3.61;81.90
72096;BME280;59968;51.084;16.748;2022-12-07T03:36:35;99778.63;;;3.61;81.84
72096;BME280;59968;51.084;16.748;2022-12-07T03:39:32;99776.36;;;3.64;82.00
72096;BME280;59968;51.084;16.748;2022-12-07T03:42:03;99773.10;;;3.67;82.08
72096;BME280;59968;51.084;16.748;2022-12-07T03:44:34;99771.42;;;3.70;82.03
72096;BME280;59968;51.084;16.748;2022-12-07T03:49:56;99760.95;;;3.77;81.71
72096;BME280;59968;51.084;16.748;2022-12-07T03:52:45;99761.51;;;3.78;81.57
72096;BME280;59968;51.084;16.748;2022-12-07T03:55:36;99760.05;;;3.84;81.33
72096;BME280;59968;51.084;16.748;2022-12-07T03:58:10;99761.04;;;3.86;81.17
72096;BME280;59968;51.084;16.748;2022-12-07T04:00:41;99762.14;;;3.88;81.21
72096;BME280;59968;51.084;16.748;2022-12-07T04:03:10;99761.39;;;3.90;81.14
72096;BME280;59968;51.084;16.748;2022-12-07T04:05:40;99761.93;;;3.92;81.01
72096;BME280;59968;51.084;16.748;2022-12-07T04:08:09;99765.02;;;3.93;80.98
72096;BME280;59968;51.084;16.748;2022-12-07T04:10:38;99760.66;;;3.94;81.13
72096;BME280;59968;51.084;16.748;2022-12-07T04:13:06;99764.96;;;3.96;80.88
72096;BME280;59968;51.084;16.748;2022-12-07T04:15:35;99762.42;;;3.94;80.90
72096;BME280;59968;51.084;16.748;2022-12-07T04:18:04;99761.48;;;3.91;80.90
72096;BME280;59968;51.084;16.748;2022-12-07T04:20:32;99759.27;;;3.88;81.17
72096;BME280;59968;51.084;16.748;2022-12-07T04:23:01;99759.15;;;3.86;81.27
72096;BME280;59968;51.084;16.748;2022-12-07T04:25:30;99759.41;;;3.85;81.25
72096;BME280;59968;51.084;16.748;2022-12-07T04:27:58;99744.97;;;3.74;81.27
72096;BME280;59968;51.084;16.748;2022-12-07T04:30:28;99759.63;;;3.83;81.34
72096;BME280;59968;51.084;16.748;2022-12-07T04:32:56;99754.48;;;3.81;81.54
72096;BME280;59968;51.084;16.748;2022-12-07T04:35:25;99753.38;;;3.84;81.48
72096;BME280;59968;51.084;16.748;2022-12-07T04:37:53;99750.70;;;3.81;81.68
72096;BME280;59968;51.084;16.748;2022-12-07T04:40:21;99749.18;;;3.86;81.59
72096;BME280;59968;51.084;16.748;2022-12-07T04:42:49;99745.80;;;3.86;81.68
72096;BME280;59968;51.084;16.748;2022-12-07T04:45:18;99752.84;;;3.92;81.61
72096;BME280;59968;51.084;16.748;2022-12-07T04:47:46;99751.06;;;3.94;81.65
72096;BME280;59968;51.084;16.748;2022-12-07T04:50:15;99746.94;;;3.98;81.65
72096;BME280;59968;51.084;16.748;2022-12-07T04:52:43;99752.61;;;4.02;81.53
72096;BME280;59968;51.084;16.748;2022-12-07T04:55:12;99745.29;;;4.06;81.54
72096;BME280;59968;51.084;16.748;2022-12-07T04:57:40;99746.42;;;4.06;81.54
72096;BME280;59968;51.084;16.748;2022-12-07T05:00:09;99745.55;;;4.08;81.49
72096;BME280;59968;51.084;16.748;2022-12-07T05:02:38;99742.85;;;4.11;81.40
72096;BME280;59968;51.084;16.748;2022-12-07T05:05:07;99745.59;;;4.12;81.25
72096;BME280;59968;51.084;16.748;2022-12-07T05:07:35;99743.84;;;4.13;81.07
72096;BME280;59968;51.084;16.748;2022-12-07T05:10:05;99745.75;;;4.14;80.81
72096;BME280;59968;51.084;16.748;2022-12-07T05:12:34;99744.19;;;4.14;80.73
72096;BME280;59968;51.084;16.748;2022-12-07T05:15:03;99740.59;;;4.16;80.38
72096;BME280;59968;51.084;16.748;2022-12-07T05:17:32;99741.80;;;4.14;79.63
72096;BME280;59968;51.084;16.748;2022-12-07T05:20:01;99739.63;;;4.12;79.60
72096;BME280;59968;51.084;16.748;2022-12-07T05:22:31;99743.34;;;3.96;79.89
72096;BME280;59968;51.084;16.748;2022-12-07T05:25:02;99738.34;;;4.04;79.51
72096;BME280;59968;51.084;16.748;2022-12-07T05:27:34;99738.35;;;4.07;79.11
72096;BME280;59968;51.084;16.748;2022-12-07T05:30:04;99739.70;;;4.05;78.79
72096;BME280;59968;51.084;16.748;2022-12-07T05:32:33;99746.73;;;4.03;78.65
72096;BME280;59968;51.084;16.748;2022-12-07T05:35:01;99748.66;;;4.01;78.80
72096;BME280;59968;51.084;16.748;2022-12-07T05:37:30;99748.33;;;3.98;78.70
72096;BME280;59968;51.084;16.748;2022-12-07T05:39:59;99752.33;;;3.99;78.88
72096;BME280;59968;51.084;16.748;2022-12-07T05:42:27;99747.15;;;3.99;78.61
72096;BME280;59968;51.084;16.748;2022-12-07T05:44:56;99755.02;;;4.01;78.52
72096;BME280;59968;51.084;16.748;2022-12-07T05:47:24;99740.98;;;3.93;78.42
72096;BME280;59968;51.084;16.748;2022-12-07T05:49:52;99751.52;;;4.00;78.45
72096;BME280;59968;51.084;16.748;2022-12-07T05:52:21;99751.65;;;4.02;78.42
72096;BME280;59968;51.084;16.748;2022-12-07T05:54:50;99750.95;;;3.92;78.39
72096;BME280;59968;51.084;16.748;2022-12-07T05:57:19;99751.50;;;3.77;79.12
72096;BME280;59968;51.084;16.748;2022-12-07T05:59:48;99755.24;;;3.87;78.42
72096;BME280;59968;51.084;16.748;2022-12-07T06:02:16;99756.20;;;3.89;78.17
72096;BME280;59968;51.084;16.748;2022-12-07T06:04:46;99756.52;;;3.90;78.27
72096;BME280;59968;51.084;16.748;2022-12-07T06:07:16;99757.23;;;3.86;77.65
72096;BME280;59968;51.084;16.748;2022-12-07T06:09:45;99752.06;;;3.86;77.83
72096;BME280;59968;51.084;16.748;2022-12-07T06:12:14;99746.95;;;3.86;77.85
72096;BME280;59968;51.084;16.748;2022-12-07T06:15:02;99728.52;;;3.80;77.84
72096;BME280;59968;51.084;16.748;2022-12-07T06:17:31;99737.34;;;3.87;77.64
72096;BME280;59968;51.084;16.748;2022-12-07T06:20:02;99737.56;;;3.84;76.93
72096;BME280;59968;51.084;16.748;2022-12-07T06:22:32;99744.65;;;3.85;77.08
72096;BME280;59968;51.084;16.748;2022-12-07T06:25:00;99743.69;;;3.85;76.76
72096;BME280;59968;51.084;16.748;2022-12-07T06:27:35;99743.98;;;3.85;76.60
72096;BME280;59968;51.084;16.748;2022-12-07T06:30:05;99740.14;;;3.84;76.36
72096;BME280;59968;51.084;16.748;2022-12-07T06:32:36;99733.85;;;3.84;76.26
72096;BME280;59968;51.084;16.748;2022-12-07T06:35:06;99737.38;;;3.85;75.96
72096;BME280;59968;51.084;16.748;2022-12-07T06:37:35;99735.39;;;3.84;76.22
72096;BME280;59968;51.084;16.748;2022-12-07T06:40:04;99739.61;;;3.83;76.33
72096;BME280;59968;51.084;16.748;2022-12-07T06:42:33;99738.25;;;3.86;76.12
72096;BME280;59968;51.084;16.748;2022-12-07T06:45:02;99724.98;;;3.79;75.81
72096;BME280;59968;51.084;16.748;2022-12-07T06:47:31;99738.42;;;3.86;75.73
72096;BME280;59968;51.084;16.748;2022-12-07T06:50:09;99740.32;;;3.86;75.77
72096;BME280;59968;51.084;16.748;2022-12-07T06:52:38;99739.39;;;3.85;75.66
72096;BME280;59968;51.084;16.748;2022-12-07T06:55:07;99735.39;;;3.86;75.63
72096;BME280;59968;51.084;16.748;2022-12-07T06:57:36;99731.29;;;3.87;75.55
72096;BME280;59968;51.084;16.748;2022-12-07T07:00:06;99731.71;;;3.87;75.45
72096;BME280;59968;51.084;16.748;2022-12-07T07:02:35;99736.04;;;3.86;75.23
72096;BME280;59968;51.084;16.748;2022-12-07T07:05:04;99731.70;;;3.80;75.07
72096;BME280;59968;51.084;16.748;2022-12-07T07:07:33;99734.59;;;3.77;75.31
72096;BME280;59968;51.084;16.748;2022-12-07T07:10:22;99734.60;;;3.74;75.51
72096;BME280;59968;51.084;16.748;2022-12-07T07:12:51;99734.60;;;3.75;75.60
72096;BME280;59968;51.084;16.748;2022-12-07T07:15:24;99733.33;;;3.76;75.58
72096;BME280;59968;51.084;16.748;2022-12-07T07:17:53;99733.90;;;3.75;75.50
72096;BME280;59968;51.084;16.748;2022-12-07T07:20:22;99729.98;;;3.75;75.69
72096;BME280;59968;51.084;16.748;2022-12-07T07:22:57;99733.16;;;3.76;75.64
72096;BME280;59968;51.084;16.748;2022-12-07T07:26:11;99733.08;;;3.79;75.78
72096;BME280;59968;51.084;16.748;2022-12-07T07:28:48;99738.36;;;3.82;75.87
72096;BME280;59968;51.084;16.748;2022-12-07T07:35:43;99728.42;;;3.93;75.69
72096;BME280;59968;51.084;16.748;2022-12-07T07:39:02;99718.81;;;3.92;75.82
72096;BME280;59968;51.084;16.748;2022-12-07T07:43:13;99724.64;;;4.03;76.10
72096;BME280;59968;51.084;16.748;2022-12-07T07:46:01;99727.75;;;4.11;76.00
72096;BME280;59968;51.084;16.748;2022-12-07T07:49:51;99726.81;;;4.25;76.15
72096;BME280;59968;51.084;16.748;2022-12-07T07:52:27;99726.67;;;4.34;76.17
72096;BME280;59968;51.084;16.748;2022-12-07T07:59:19;99737.49;;;4.51;75.30
72096;BME280;59968;51.084;16.748;2022-12-07T08:02:41;99742.36;;;4.56;75.03
72096;BME280;59968;51.084;16.748;2022-12-07T08:05:13;99741.83;;;4.60;74.77
72096;BME280;59968;51.084;16.748;2022-12-07T08:07:43;99742.77;;;4.63;74.65
72096;BME280;59968;51.084;16.748;2022-12-07T08:10:13;99742.08;;;4.64;74.47
72096;BME280;59968;51.084;16.748;2022-12-07T08:12:43;99741.50;;;4.66;74.36
72096;BME280;59968;51.084;16.748;2022-12-07T08:15:30;99732.17;;;4.69;74.07
72096;BME280;59968;51.084;16.748;2022-12-07T08:18:00;99723.83;;;4.71;74.10
72096;BME280;59968;51.084;16.748;2022-12-07T08:20:32;99725.24;;;4.82;73.63
72096;BME280;59968;51.084;16.748;2022-12-07T08:23:02;99716.98;;;4.87;73.29
72096;BME280;59968;51.084;16.748;2022-12-07T08:25:31;99725.23;;;4.97;73.08
72096;BME280;59968;51.084;16.748;2022-12-07T08:28:01;99727.34;;;5.03;72.88
72096;BME280;59968;51.084;16.748;2022-12-07T08:30:30;99723.41;;;5.06;72.63
72096;BME280;59968;51.084;16.748;2022-12-07T08:32:58;99725.67;;;5.10;72.59
72096;BME280;59968;51.084;16.748;2022-12-07T08:35:27;99723.23;;;5.17;72.66
72096;BME280;59968;51.084;16.748;2022-12-07T08:37:55;99718.55;;;5.25;72.69
72096;BME280;59968;51.084;16.748;2022-12-07T08:40:26;99719.02;;;5.35;72.79
72096;BME280;59968;51.084;16.748;2022-12-07T08:42:55;99718.55;;;5.44;72.56
72096;BME280;59968;51.084;16.748;2022-12-07T08:45:23;99712.16;;;5.47;72.54
72096;BME280;59968;51.084;16.748;2022-12-07T08:48:01;99717.12;;;5.62;71.89
72096;BME280;59968;51.084;16.748;2022-12-07T08:50:32;99716.38;;;5.72;71.53
72096;BME280;59968;51.084;16.748;2022-12-07T08:53:04;99710.12;;;5.68;71.40
72096;BME280;59968;51.084;16.748;2022-12-07T08:55:34;99708.73;;;5.62;72.15
72096;BME280;59968;51.084;16.748;2022-12-07T08:58:04;99710.30;;;5.68;71.96
72096;BME280;59968;51.084;16.748;2022-12-07T09:00:33;99707.69;;;5.73;71.88
72096;BME280;59968;51.084;16.748;2022-12-07T09:03:02;99703.11;;;5.81;71.42
72096;BME280;59968;51.084;16.748;2022-12-07T09:05:32;99703.95;;;5.87;70.79
72096;BME280;59968;51.084;16.748;2022-12-07T09:08:02;99700.56;;;5.91;70.82
72096;BME280;59968;51.084;16.748;2022-12-07T09:10:30;99701.20;;;5.96;70.82
72096;BME280;59968;51.084;16.748;2022-12-07T09:12:59;99698.23;;;6.01;70.43
72096;BME280;59968;51.084;16.748;2022-12-07T09:15:30;99697.98;;;6.04;70.01
72096;BME280;59968;51.084;16.748;2022-12-07T09:17:59;99695.92;;;6.07;69.75
72096;BME280;59968;51.084;16.748;2022-12-07T09:20:28;99691.30;;;6.10;69.42
72096;BME280;59968;51.084;16.748;2022-12-07T09:22:58;99692.07;;;6.11;69.53
72096;BME280;59968;51.084;16.748;2022-12-07T09:25:28;99688.86;;;6.16;69.09
72096;BME280;59968;51.084;16.748;2022-12-07T09:27:57;99686.45;;;6.18;69.29
72096;BME280;59968;51.084;16.748;2022-12-07T09:30:27;99681.79;;;6.25;68.77
72096;BME280;59968;51.084;16.748;2022-12-07T09:32:59;99678.50;;;6.28;68.25
72096;BME280;59968;51.084;16.748;2022-12-07T09:35:27;99672.07;;;6.31;67.90
72096;BME280;59968;51.084;16.748;2022-12-07T09:37:56;99671.62;;;6.32;67.56
72096;BME280;59968;51.084;16.748;2022-12-07T09:40:25;99671.20;;;6.31;67.68
72096;BME280;59968;51.084;16.748;2022-12-07T09:42:55;99666.36;;;6.33;67.64
72096;BME280;59968;51.084;16.748;2022-12-07T09:45:33;99659.45;;;6.34;67.50
72096;BME280;59968;51.084;16.748;2022-12-07T09:48:05;99662.41;;;6.37;67.51
72096;BME280;59968;51.084;16.748;2022-12-07T09:50:34;99657.41;;;6.38;67.50
72096;BME280;59968;51.084;16.748;2022-12-07T09:53:09;99653.08;;;6.43;67.44
72096;BME280;59968;51.084;16.748;2022-12-07T09:55:41;99647.43;;;6.45;67.12
72096;BME280;59968;51.084;16.748;2022-12-07T09:58:23;99649.15;;;6.47;67.34
72096;BME280;59968;51.084;16.748;2022-12-07T10:01:00;99647.79;;;6.51;66.71
72096;BME280;59968;51.084;16.748;2022-12-07T10:03:30;99640.61;;;6.51;66.57
72096;BME280;59968;51.084;16.748;2022-12-07T10:05:59;99635.90;;;6.52;66.75
72096;BME280;59968;51.084;16.748;2022-12-07T10:08:28;99635.56;;;6.50;66.71
72096;BME280;59968;51.084;16.748;2022-12-07T10:10:58;99638.56;;;6.50;66.48
72096;BME280;59968;51.084;16.748;2022-12-07T10:13:41;99632.71;;;6.44;66.48
72096;BME280;59968;51.084;16.748;2022-12-07T10:16:41;99630.92;;;6.40;66.42
72096;BME280;59968;51.084;16.748;2022-12-07T10:19:24;99607.64;;;6.26;66.45
72096;BME280;59968;51.084;16.748;2022-12-07T10:24:32;99625.35;;;6.38;66.57
72096;BME280;59968;51.084;16.748;2022-12-07T10:27:03;99611.93;;;6.34;66.70
72096;BME280;59968;51.084;16.748;2022-12-07T10:29:36;99622.38;;;6.41;66.73
72096;BME280;59968;51.084;16.748;2022-12-07T10:32:28;99628.19;;;6.40;66.75
72096;BME280;59968;51.084;16.748;2022-12-07T10:35:24;99631.40;;;6.35;66.57
72096;BME280;59968;51.084;16.748;2022-12-07T10:38:16;99628.81;;;6.23;67.08
72096;BME280;59968;51.084;16.748;2022-12-07T10:40:45;99635.08;;;6.18;67.83
72096;BME280;59968;51.084;16.748;2022-12-07T11:11:46;99601.19;;;5.76;70.02
72096;BME280;59968;51.084;16.748;2022-12-07T11:14:39;99618.55;;;6.09;69.69
72096;BME280;59968;51.084;16.748;2022-12-07T11:20:29;99607.61;;;6.23;68.71
72096;BME280;59968;51.084;16.748;2022-12-07T11:25:46;99591.91;;;6.11;68.99
72096;BME280;59968;51.084;16.748;2022-12-07T11:33:46;99612.01;;;6.22;69.27
72096;BME280;59968;51.084;16.748;2022-12-07T11:36:43;99592.30;;;6.05;69.34
72096;BME280;59968;51.084;16.748;2022-12-07T11:42:02;99610.11;;;6.11;69.65
72096;BME280;59968;51.084;16.748;2022-12-07T11:44:48;99597.71;;;5.82;70.49
72096;BME280;59968;51.084;16.748;2022-12-07T11:50:27;99603.96;;;5.74;71.01
72096;BME280;59968;51.084;16.748;2022-12-07T11:58:48;99599.26;;;5.75;71.14
72096;BME280;59968;51.084;16.748;2022-12-07T12:04:22;99598.98;;;5.70;71.02
72096;BME280;59968;51.084;16.748;2022-12-07T12:06:53;99597.98;;;5.69;70.99
72096;BME280;59968;51.084;16.748;2022-12-07T12:09:34;99592.20;;;5.66;70.54
72096;BME280;59968;51.084;16.748;2022-12-07T12:18:17;99582.02;;;5.52;70.66
72096;BME280;59968;51.084;16.748;2022-12-07T12:26:50;99579.79;;;5.53;71.04
72096;BME280;59968;51.084;16.748;2022-12-07T12:29:33;99586.08;;;5.64;70.92
72096;BME280;59968;51.084;16.748;2022-12-07T12:32:06;99585.98;;;5.68;70.79
72096;BME280;59968;51.084;16.748;2022-12-07T12:42:56;99578.34;;;5.73;70.71
72096;BME280;59968;51.084;16.748;2022-12-07T12:45:30;99581.66;;;5.78;70.51
72096;BME280;59968;51.084;16.748;2022-12-07T12:48:04;99577.19;;;5.81;70.59
72096;BME280;59968;51.084;16.748;2022-12-07T12:50:37;99577.65;;;5.74;70.63
72096;BME280;59968;51.084;16.748;2022-12-07T12:53:17;99578.95;;;5.80;70.55
72096;BME280;59968;51.084;16.748;2022-12-07T13:03:57;99580.70;;;5.84;70.46
72096;BME280;59968;51.084;16.748;2022-12-07T13:08:58;99570.73;;;5.76;70.28
72096;BME280;59968;51.084;16.748;2022-12-07T13:11:32;99577.02;;;5.83;70.14
72096;BME280;59968;51.084;16.748;2022-12-07T13:14:41;99580.60;;;5.83;70.20
72096;BME280;59968;51.084;16.748;2022-12-07T13:20:03;99585.83;;;5.84;70.13
72096;BME280;59968;51.084;16.748;2022-12-07T13:28:02;99583.20;;;5.85;70.37
72096;BME280;59968;51.084;16.748;2022-12-07T13:30:31;99582.80;;;5.85;70.33
72096;BME280;59968;51.084;16.748;2022-12-07T13:33:03;99580.79;;;5.83;70.08
72096;BME280;59968;51.084;16.748;2022-12-07T13:35:36;99581.41;;;5.82;70.04
72096;BME280;59968;51.084;16.748;2022-12-07T13:38:22;99584.39;;;5.74;70.42
72096;BME280;59968;51.084;16.748;2022-12-07T13:41:12;99583.63;;;5.75;70.32
72096;BME280;59968;51.084;16.748;2022-12-07T13:49:26;99589.19;;;5.67;70.11
72096;BME280;59968;51.084;16.748;2022-12-07T13:52:33;99593.14;;;5.56;70.52
72096;BME280;59968;51.084;16.748;2022-12-07T13:57:37;99591.32;;;5.51;70.49
72096;BME280;59968;51.084;16.748;2022-12-07T14:00:18;99593.45;;;5.51;70.59
72096;BME280;59968;51.084;16.748;2022-12-07T14:05:33;99591.07;;;5.50;70.69
72096;BME280;59968;51.084;16.748;2022-12-07T14:08:25;99587.61;;;5.57;70.66
72096;BME280;59968;51.084;16.748;2022-12-07T14:10:56;99580.92;;;5.60;70.62
72096;BME280;59968;51.084;16.748;2022-12-07T14:13:35;99587.99;;;5.64;70.33
72096;BME280;59968;51.084;16.748;2022-12-07T14:16:33;99591.39;;;5.65;70.14
72096;BME280;59968;51.084;16.748;2022-12-07T14:19:05;99590.83;;;5.67;69.76
72096;BME280;59968;51.084;16.748;2022-12-07T14:21:34;99590.27;;;5.65;69.64
72096;BME280;59968;51.084;16.748;2022-12-07T14:24:16;99587.51;;;5.65;69.60
72096;BME280;59968;51.084;16.748;2022-12-07T14:26:49;99588.06;;;5.65;69.49
72096;BME280;59968;51.084;16.748;2022-12-07T14:32:18;99585.87;;;5.64;69.51
72096;BME280;59968;51.084;16.748;2022-12-07T14:35:00;99585.80;;;5.62;69.55
72096;BME280;59968;51.084;16.748;2022-12-07T14:37:29;99587.09;;;5.54;69.72
72096;BME280;59968;51.084;16.748;2022-12-07T14:39:58;99585.97;;;5.49;69.86
72096;BME280;59968;51.084;16.748;2022-12-07T14:42:29;99585.54;;;5.43;70.04
72096;BME280;59968;51.084;16.748;2022-12-07T14:44:58;99584.88;;;5.39;70.22
72096;BME280;59968;51.084;16.748;2022-12-07T14:47:28;99591.40;;;5.37;70.30
72096;BME280;59968;51.084;16.748;2022-12-07T14:50:18;99589.88;;;5.40;70.27
72096;BME280;59968;51.084;16.748;2022-12-07T14:52:58;99590.96;;;5.39;70.30
72096;BME280;59968;51.084;16.748;2022-12-07T14:55:48;99589.13;;;5.41;70.16
72096;BME280;59968;51.084;16.748;2022-12-07T14:58:17;99583.91;;;5.41;69.88
72096;BME280;59968;51.084;16.748;2022-12-07T15:00:46;99583.76;;;5.41;69.90
72096;BME280;59968;51.084;16.748;2022-12-07T15:03:15;99583.48;;;5.35;69.84
72096;BME280;59968;51.084;16.748;2022-12-07T15:05:46;99590.23;;;5.31;69.92
72096;BME280;59968;51.084;16.748;2022-12-07T15:08:15;99598.86;;;5.29;70.09
72096;BME280;59968;51.084;16.748;2022-12-07T15:10:45;99601.70;;;5.26;70.16
72096;BME280;59968;51.084;16.748;2022-12-07T15:13:13;99601.05;;;5.26;70.09
72096;BME280;59968;51.084;16.748;2022-12-07T15:16:13;99595.98;;;5.24;70.25
72096;BME280;59968;51.084;16.748;2022-12-07T15:22:11;99600.75;;;5.15;70.36
72096;BME280;59968;51.084;16.748;2022-12-07T15:24:40;99604.65;;;5.12;70.50
72096;BME280;59968;51.084;16.748;2022-12-07T15:27:09;99600.25;;;5.07;70.71
72096;BME280;59968;51.084;16.748;2022-12-07T15:29:37;99605.02;;;5.09;70.83
72096;BME280;59968;51.084;16.748;2022-12-07T15:32:06;99607.77;;;5.12;70.95
72096;BME280;59968;51.084;16.748;2022-12-07T15:34:35;99607.95;;;5.15;70.96
72096;BME280;59968;51.084;16.748;2022-12-07T15:37:07;99609.36;;;5.16;71.18
72096;BME280;59968;51.084;16.748;2022-12-07T15:39:36;99610.48;;;5.17;71.28
72096;BME280;59968;51.084;16.748;2022-12-07T15:42:05;99609.50;;;5.15;71.31
72096;BME280;59968;51.084;16.748;2022-12-07T15:44:35;99606.73;;;5.15;71.40
72096;BME280;59968;51.084;16.748;2022-12-07T15:47:23;99613.62;;;5.13;71.40
72096;BME280;59968;51.084;16.748;2022-12-07T15:49:52;99612.86;;;5.13;71.63
72096;BME280;59968;51.084;16.748;2022-12-07T15:52:22;99612.95;;;5.11;71.61
72096;BME280;59968;51.084;16.748;2022-12-07T15:54:51;99610.56;;;5.10;71.61
72096;BME280;59968;51.084;16.748;2022-12-07T15:57:20;99615.73;;;5.10;71.80
72096;BME280;59968;51.084;16.748;2022-12-07T15:59:53;99618.73;;;5.13;71.78
72096;BME280;59968;51.084;16.748;2022-12-07T16:02:23;99620.98;;;5.16;71.62
72096;BME280;59968;51.084;16.748;2022-12-07T16:04:55;99618.48;;;5.17;71.64
72096;BME280;59968;51.084;16.748;2022-12-07T16:07:27;99621.66;;;5.16;71.68
72096;BME280;59968;51.084;16.748;2022-12-07T16:09:56;99596.45;;;5.01;71.34
72096;BME280;59968;51.084;16.748;2022-12-07T16:12:27;99621.78;;;5.17;71.43
72096;BME280;59968;51.084;16.748;2022-12-07T16:14:58;99620.42;;;5.12;71.40
72096;BME280;59968;51.084;16.748;2022-12-07T16:17:28;99618.86;;;5.12;71.34